地図

経路データ

SID SEASON NUMBER BASIN SUBBASIN NAME ISO_TIME NATURE LAT LON WMO_WIND WMO_PRES WMO_AGENCY TRACK_TYPE DIST2LAND LANDFALL IFLAG USA_AGENCY USA_ATCF_ID USA_LAT USA_LON USA_RECORD USA_STATUS USA_WIND USA_PRES USA_SSHS USA_R34_NE USA_R34_SE USA_R34_SW USA_R34_NW USA_R50_NE USA_R50_SE USA_R50_SW USA_R50_NW USA_R64_NE USA_R64_SE USA_R64_SW USA_R64_NW USA_POCI USA_ROCI USA_RMW USA_EYE TOKYO_LAT TOKYO_LON TOKYO_GRADE TOKYO_WIND TOKYO_PRES TOKYO_R50_DIR TOKYO_R50_LONG TOKYO_R50_SHORT TOKYO_R30_DIR TOKYO_R30_LONG TOKYO_R30_SHORT TOKYO_LAND CMA_LAT CMA_LON CMA_CAT CMA_WIND CMA_PRES HKO_LAT HKO_LON HKO_CAT HKO_WIND HKO_PRES NEWDELHI_LAT NEWDELHI_LON NEWDELHI_GRADE NEWDELHI_WIND NEWDELHI_PRES NEWDELHI_CI NEWDELHI_DP NEWDELHI_POCI REUNION_LAT REUNION_LON REUNION_TYPE REUNION_WIND REUNION_PRES REUNION_TNUM REUNION_CI REUNION_RMW REUNION_R34_NE REUNION_R34_SE REUNION_R34_SW REUNION_R34_NW REUNION_R50_NE REUNION_R50_SE REUNION_R50_SW REUNION_R50_NW REUNION_R64_NE REUNION_R64_SE REUNION_R64_SW REUNION_R64_NW BOM_LAT BOM_LON BOM_TYPE BOM_WIND BOM_PRES BOM_TNUM BOM_CI BOM_RMW BOM_R34_NE BOM_R34_SE BOM_R34_SW BOM_R34_NW BOM_R50_NE BOM_R50_SE BOM_R50_SW BOM_R50_NW BOM_R64_NE BOM_R64_SE BOM_R64_SW BOM_R64_NW BOM_ROCI BOM_POCI BOM_EYE BOM_POS_METHOD BOM_PRES_METHOD NADI_LAT NADI_LON NADI_CAT NADI_WIND NADI_PRES WELLINGTON_LAT WELLINGTON_LON WELLINGTON_WIND WELLINGTON_PRES DS824_LAT DS824_LON DS824_STAGE DS824_WIND DS824_PRES TD9636_LAT TD9636_LON TD9636_STAGE TD9636_WIND TD9636_PRES TD9635_LAT TD9635_LON TD9635_WIND TD9635_PRES TD9635_ROCI NEUMANN_LAT NEUMANN_LON NEUMANN_CLASS NEUMANN_WIND NEUMANN_PRES MLC_LAT MLC_LON MLC_CLASS MLC_WIND MLC_PRES USA_GUST BOM_GUST BOM_GUST_PER REUNION_GUST REUNION_GUST_PER USA_SEAHGT USA_SEARAD_NE USA_SEARAD_SE USA_SEARAD_SW USA_SEARAD_NW STORM_SPEED STORM_DIR
1885345S12063 1886 55 SI MM NOT_NAMED 1885-12-11 00:00:00 TS -11.6000 63.4000 main 1129 1097 _________O____ -1 -11.6000 63.4000 TC 8 258
1885345S12063 1886 55 SI MM NOT_NAMED 1885-12-11 03:00:00 TS -11.6876 62.9900 main 1097 1066 _________P____ -1 -11.6876 62.9900 TC 8 256
1885345S12063 1886 55 SI MM NOT_NAMED 1885-12-11 06:00:00 TS -11.8000 62.6000 main 1066 1040 _________O____ -1 -11.8000 62.6000 TC 8 250
1885345S12063 1886 55 SI MM NOT_NAMED 1885-12-11 09:00:00 TS -11.9499 62.2425 main 1035 1001 _________P____ -1 -11.9499 62.2425 TC 7 246
1885345S12063 1886 55 SI MM NOT_NAMED 1885-12-11 12:00:00 TS -12.1000 61.9000 main 1001 977 _________O____ -1 -12.1000 61.9000 TC 7 250
1885345S12063 1886 55 SI MM NOT_NAMED 1885-12-11 15:00:00 TS -12.2000 61.5499 main 972 949 _________P____ -1 -12.2000 61.5499 TC 7 254
1885345S12063 1886 55 SI MM NOT_NAMED 1885-12-11 18:00:00 TS -12.3000 61.2000 main 949 926 _________O____ -1 -12.3000 61.2000 TC 7 251
1885345S12063 1886 55 SI MM NOT_NAMED 1885-12-11 21:00:00 TS -12.4349 60.8574 main 926 890 _________P____ -1 -12.4349 60.8574 TC 7 246
1885345S12063 1886 55 SI MM NOT_NAMED 1885-12-12 00:00:00 TS -12.6000 60.5000 main 890 856 _________O____ -1 -12.6000 60.5000 TC 8 244
1885345S12063 1886 55 SI MM NOT_NAMED 1885-12-12 03:00:00 TS -12.7925 60.1000 main 856 822 _________P____ -1 -12.7925 60.1000 TC 9 243
1885345S12063 1886 55 SI MM NOT_NAMED 1885-12-12 06:00:00 TS -13.0000 59.7000 main 822 793 _________O____ -1 -13.0000 59.7000 TC 8 241
1885345S12063 1886 55 SI MM NOT_NAMED 1885-12-12 09:00:00 TS -13.1999 59.3424 main 790 762 _________P____ -1 -13.1999 59.3424 TC 8 240
1885345S12063 1886 55 SI MM NOT_NAMED 1885-12-12 12:00:00 TS -13.4000 59.0000 main 762 735 _________O____ -1 -13.4000 59.0000 TC 8 239
1885345S12063 1886 55 SI MM NOT_NAMED 1885-12-12 15:00:00 TS -13.6075 58.6500 main 733 707 _________P____ -1 -13.6075 58.6500 TC 8 240
1885345S12063 1886 55 SI MM NOT_NAMED 1885-12-12 18:00:00 TS -13.8000 58.3000 main 707 694 _________O____ -1 -13.8000 58.3000 TC 8 243
1885345S12063 1886 55 SI MM NOT_NAMED 1885-12-12 21:00:00 TS -13.9575 57.9499 main 682 671 _________P____ -1 -13.9575 57.9499 TC 7 246
1885345S12063 1886 55 SI MM NOT_NAMED 1885-12-13 00:00:00 TS -14.1000 57.6000 main 671 660 _________O____ -1 -14.1000 57.6000 TC 7 247
1885345S12063 1886 55 SI MM NOT_NAMED 1885-12-13 03:00:00 TS -14.2425 57.2424 main 660 640 _________P____ -1 -14.2425 57.2424 TC 7 246
1885345S12063 1886 55 SI MM NOT_NAMED 1885-12-13 06:00:00 TS -14.4000 56.9000 main 641 622 _________O____ -1 -14.4000 56.9000 TC 7 241
1885345S12063 1886 55 SI MM NOT_NAMED 1885-12-13 09:00:00 TS -14.5925 56.5850 main 622 604 _________P____ -1 -14.5925 56.5850 TC 7 235
1885345S12063 1886 55 SI MM NOT_NAMED 1885-12-13 12:00:00 TS -14.8000 56.3000 main 606 589 _________O____ -1 -14.8000 56.3000 TC 7 233
1885345S12063 1886 55 SI MM NOT_NAMED 1885-12-13 15:00:00 TS -14.9924 56.0424 main 591 568 _________P____ -1 -14.9924 56.0424 TC 6 230
1885345S12063 1886 55 SI MM NOT_NAMED 1885-12-13 18:00:00 TS -15.2000 55.8000 main 568 546 _________O____ -1 -15.2000 55.8000 TC 6 226
1885345S12063 1886 55 SI MM NOT_NAMED 1885-12-13 21:00:00 TS -15.4198 55.5797 main 546 515 _________P____ -1 -15.4198 55.5797 TC 7 224
1885345S12063 1886 55 SI MM NOT_NAMED 1885-12-14 00:00:00 TS -15.7000 55.3000 main 515 475 _________O____ -1 -15.7000 55.3000 TC 9 226
1885345S12063 1886 55 SI MM NOT_NAMED 1885-12-14 03:00:00 TS -16.0701 54.8726 main 477 434 _________P____ -1 -16.0701 54.8726 TC 12 227
1885345S12063 1886 55 SI MM NOT_NAMED 1885-12-14 06:00:00 TS -16.5000 54.4000 main 434 409 _________O____ -1 -16.5000 54.4000 TC 12 225
1885345S12063 1886 55 SI MM NOT_NAMED 1885-12-14 09:00:00 TS -16.9275 53.9773 main 409 389 _________P____ -1 -16.9275 53.9773 TC 12 220
1885345S12063 1886 55 SI MM NOT_NAMED 1885-12-14 12:00:00 TS -17.4000 53.6000 main 394 384 _________O____ -1 -17.4000 53.6000 TC 12 214
1885345S12063 1886 55 SI MM NOT_NAMED 1885-12-14 15:00:00 TS -17.9199 53.2699 main 391 368 _________P____ -1 -17.9199 53.2699 TC 12 207
1885345S12063 1886 55 SI MM NOT_NAMED 1885-12-14 18:00:00 TS -18.5000 53.0000 main 368 335 _________O____ -1 -18.5000 53.0000 TC 13 201
1885345S12063 1886 55 SI MM NOT_NAMED 1885-12-14 21:00:00 TS -19.1725 52.7700 main 328 307 _________P____ -1 -19.1725 52.7700 TC 14 196
1885345S12063 1886 55 SI MM NOT_NAMED 1885-12-15 00:00:00 TS -19.8000 52.6000 main 307 297 _________O____ -1 -19.8000 52.6000 TC 11 194
1885345S12063 1886 55 SI MM NOT_NAMED 1885-12-15 03:00:00 TS -20.2375 52.4773 main 298 294 _________P____ -1 -20.2375 52.4773 TC 8 193
1885345S12063 1886 55 SI MM NOT_NAMED 1885-12-15 06:00:00 TS -20.6000 52.4000 main 296 292 _________O____ -1 -20.6000 52.4000 TC 8 190
1885345S12063 1886 55 SI MM NOT_NAMED 1885-12-15 09:00:00 TS -21.0000 52.3275 main 301 300 _________P____ -1 -21.0000 52.3275 TC 8 187
1885345S12063 1886 55 SI MM NOT_NAMED 1885-12-15 12:00:00 TS -21.4000 52.3000 main 302 302 _________O____ -1 -21.4000 52.3000 TC 8 181
1885345S12063 1886 55 SI MM NOT_NAMED 1885-12-15 15:00:00 TS -21.8000 52.3275 main 310 306 _________P____ -1 -21.8000 52.3275 TC 8 173
1885345S12063 1886 55 SI MM NOT_NAMED 1885-12-15 18:00:00 TS -22.2000 52.4000 main 314 314 _________O____ -1 -22.2000 52.4000 TC 8 170
1885345S12063 1886 55 SI MM NOT_NAMED 1885-12-15 21:00:00 TS -22.5700 52.4777 main 323 323 _________P____ -1 -22.5700 52.4777 TC 8 167
1885345S12063 1886 55 SI MM NOT_NAMED 1885-12-16 00:00:00 TS -23.0000 52.6000 main 336 336 _________O____ -1 -23.0000 52.6000 TC 10 165
1885345S12063 1886 55 SI MM NOT_NAMED 1885-12-16 03:00:00 TS -23.5775 52.7701 main 363 363 _________P____ -1 -23.5775 52.7701 TC 13 163
1885345S12063 1886 55 SI MM NOT_NAMED 1885-12-16 06:00:00 TS -24.2000 53.0000 main 400 400 _________O____ -1 -24.2000 53.0000 TC 13 159
1885345S12063 1886 55 SI MM NOT_NAMED 1885-12-16 09:00:00 TS -24.7650 53.2776 main 441 441 _________P____ -1 -24.7650 53.2776 TC 12 154
1885345S12063 1886 55 SI MM NOT_NAMED 1885-12-16 12:00:00 TS -25.3000 53.6000 main 479 479 _________O____ -1 -25.3000 53.6000 TC 12 151
1885345S12063 1886 55 SI MM NOT_NAMED 1885-12-16 15:00:00 TS -25.8148 53.9279 main 521 521 _________P____ -1 -25.8148 53.9279 TC 12 148
1885345S12063 1886 55 SI MM NOT_NAMED 1885-12-16 18:00:00 TS -26.3000 54.3000 main 563 563 _________O____ -1 -26.3000 54.3000 TC 11 143
1885345S12063 1886 55 SI MM NOT_NAMED 1885-12-16 21:00:00 TS -26.7119 54.6843 main 599 599 _________P____ -1 -26.7119 54.6843 TC 12 138
1885345S12063 1886 55 SI MM NOT_NAMED 1885-12-17 00:00:00 TS -27.2000 55.2000 main 649 649 _________O____ -1 -27.2000 55.2000 TC 16 137
1885345S12063 1886 55 SI MM NOT_NAMED 1885-12-17 03:00:00 TS -27.9201 55.9319 main 726 726 _________P____ -1 -27.9201 55.9319 TC 21 137
1885345S12063 1886 55 SI MM NOT_NAMED 1885-12-17 06:00:00 TS -28.7000 56.8000 main 824 824 _________O____ -1 -28.7000 56.8000 TC 21 134
1885345S12063 1886 55 SI MM NOT_NAMED 1885-12-17 09:00:00 TS -29.3795 57.6784 main 918 918 _________P____ -1 -29.3795 57.6784 TC 20 130
1885345S12063 1886 55 SI MM NOT_NAMED 1885-12-17 12:00:00 TS -30.0000 58.6000 main 1006 1006 _________O____ -1 -30.0000 58.6000 TC 20 127
1885345S12063 1886 55 SI MM NOT_NAMED 1885-12-17 15:00:00 TS -30.5941 59.5281 main 1098 1098 _________P____ -1 -30.5941 59.5281 TC 20 124
1885345S12063 1886 55 SI MM NOT_NAMED 1885-12-17 18:00:00 TS -31.1000 60.5000 main 1187 1187 _________O____ -1 -31.1000 60.5000 TC 19 117
1885345S12063 1886 55 SI MM NOT_NAMED 1885-12-17 21:00:00 TS -31.4869 61.5314 main 1270 1270 _________P____ -1 -31.4869 61.5314 TC 19 111
1885345S12063 1886 55 SI MM NOT_NAMED 1885-12-18 00:00:00 TS -31.8000 62.6000 main 1352 _________O____ -1 -31.8000 62.6000 TC 19 109

IBTrACS Databaseについて

本データベースは、米国NOAAが公開する1842年以降の世界の熱帯低気圧のベストトラックデータアーカイブInternational Best Track Archive for Climate Stewardship (IBTrACS)を、ウェブで閲覧しやすい形式に変換したものです。

最終更新日:2021-12-06